Terminal Aerodrome Forecast
Issued by NWS

Home | Current Version | Previous Version | Text Only | Print | Product List | Glossary On
Versions: 1 2 3 4 5 6 7 8 9 10 11 12 13 14 15 16 17 18
000
FTUS43 KAPX 231120
TAFTVC
TAF
KTVC 231120Z 2312/2412 35003KT 3SM RA OVC006
     FM231900 03005KT 3SM RA OVC008
     FM240200 35015KT 3SM RA OVC008
     FM240700 32017G25KT 2SM RA OVC008
     FM240900 30014KT 3SM RA OVC015
     FM241100 27013G21KT 4SM SHRA OVC015=

USA.gov is the U.S. government's official web portal to all federal, state and local government web resources and services.